Grissom ARB Airport Peru US
ICAO: KGUS
IATA: GUS
Category: Large
Scheduled Services: No

Elevation: 812 ft
TransAlt. 18000 ft.

Airport Communications:
APP:121.05
ATIS:108.45
CLNC DEL:120
DEP:121.05
GND:128.425
PMSV METRO:34.46
PTD:37.22
TWR:133.7

KGUS Zoom In..

Runways:

(A) RW 05 length 12501 ft width 200 ft
ILS 109.50 / hdg 46

(B) RW 23 length 12501 ft width 200 ft
ILS 109.50 / hdg 226

Location; KGUS
Day. 19 / Time. 20.56 Zulu
* Altimeter: 30.29
* Temperature: 12° c. 53.6°f.
* Wind from: 320° Speed 16 kn with Gusts up to 20 kn.
Dewpoint: -02° c.
Visibility: 10 Statute Miles.
Clouds: Clear (automated report).

KGUS 192056Z AUTO 32016G20KT 10SM CLR 12/M02 A3029 RMK AO2 SLP266 T01201022 52009 RVRNO PWINO $


Wind From 320°
Speed 16 kn.

  YouTube Music Video
 
jpsmedia.com for Web Design  worldairports.se 2018   terms of use